Time;durP1;ratioP1;P1;durP2;ratioP2;P2;SDS_P1;SDS_P2;PMS_P1;PMS_P2;Temp;Humidity;BMP_temperature;BMP_pressure;BME280_temperature;BME280_humidity;BME280_pressure;Samples;Min_cycle;Max_cycle;Signal;HPM_P1;HPM_P2
2021/07/08 00:01:41;;;;;;;5.97;5.37;;;17.10;99.90;;;;;;5054635;28;20237;-70
2021/07/08 00:04:07;;;;;;;6.40;5.30;;;17.10;99.90;;;;;;5032891;28;20185;-70
2021/07/08 00:06:32;;;;;;;6.63;4.93;;;17.00;99.90;;;;;;5015756;28;20428;-71
2021/07/08 00:08:58;;;;;;;6.30;5.47;;;17.00;99.90;;;;;;5014967;28;20158;-70
2021/07/08 00:11:25;;;;;;;5.20;4.70;;;16.90;99.90;;;;;;5014876;28;20651;-70
2021/07/08 00:13:51;;;;;;;6.57;4.50;;;16.90;99.90;;;;;;5018121;28;20424;-70
2021/07/08 00:16:17;;;;;;;5.23;4.77;;;16.80;99.90;;;;;;5037066;28;20458;-70
2021/07/08 00:18:42;;;;;;;4.70;4.30;;;16.80;99.90;;;;;;5034603;28;20169;-70
2021/07/08 00:21:08;;;;;;;5.90;5.30;;;16.80;99.90;;;;;;5035084;28;20255;-71
2021/07/08 00:23:34;;;;;;;6.10;4.57;;;16.80;99.90;;;;;;5033580;28;20545;-70
2021/07/08 00:25:59;;;;;;;6.73;5.60;;;16.70;99.90;;;;;;5025083;28;20416;-70
2021/07/08 00:28:25;;;;;;;10.40;4.90;;;16.70;99.90;;;;;;5053202;28;20169;-71
2021/07/08 00:30:51;;;;;;;6.90;4.73;;;16.70;99.90;;;;;;5041135;28;20509;-70
2021/07/08 00:33:17;;;;;;;5.87;4.30;;;16.70;99.90;;;;;;5034320;28;20185;-70
2021/07/08 00:35:43;;;;;;;5.57;4.80;;;16.60;99.90;;;;;;5018109;28;20188;-70
2021/07/08 00:38:09;;;;;;;5.40;4.43;;;16.60;99.90;;;;;;5017822;28;20442;-71
2021/07/08 00:40:35;;;;;;;5.30;4.27;;;16.60;99.90;;;;;;5028799;28;20455;-70
2021/07/08 00:43:01;;;;;;;4.10;3.80;;;16.50;99.90;;;;;;5014312;28;20176;-70
2021/07/08 00:45:27;;;;;;;5.87;5.17;;;16.50;99.90;;;;;;5014169;28;20435;-70
2021/07/08 00:47:54;;;;;;;4.63;4.00;;;16.50;99.90;;;;;;5014325;28;20197;-70
2021/07/08 00:50:25;;;;;;;6.10;5.50;;;16.50;99.90;;;;;;5014287;28;20403;-70
2021/07/08 00:52:51;;;;;;;5.30;4.80;;;16.50;99.90;;;;;;5013941;28;20542;-70
2021/07/08 00:55:17;;;;;;;5.17;4.60;;;16.40;99.90;;;;;;5020000;28;20571;-70
2021/07/08 00:57:52;;;;;;;5.40;4.90;;;16.50;99.90;;;;;;5032243;28;20174;-70
2021/07/08 01:00:21;;;;;;;5.10;4.70;;;16.40;99.90;;;;;;5013812;28;20207;-70
2021/07/08 01:02:49;;;;;;;5.60;4.90;;;16.40;99.90;;;;;;5015294;28;20431;-70
2021/07/08 01:05:16;;;;;;;5.87;4.53;;;16.40;99.90;;;;;;5026539;28;20455;-70
2021/07/08 01:07:43;;;;;;;5.10;4.10;;;16.30;99.90;;;;;;5051586;28;20415;-71
2021/07/08 01:10:10;;;;;;;6.37;4.60;;;16.30;99.90;;;;;;5053454;28;20393;-70
2021/07/08 01:12:35;;;;;;;8.27;5.97;;;16.30;99.90;;;;;;5042066;28;20483;-70
2021/07/08 01:15:01;;;;;;;12.80;9.80;;;16.30;99.90;;;;;;5021707;28;20419;-70
2021/07/08 01:17:26;;;;;;;11.70;8.90;;;16.20;99.90;;;;;;5033522;28;20160;-70
2021/07/08 01:19:52;;;;;;;9.80;8.10;;;16.20;99.90;;;;;;5033281;28;20611;-70
2021/07/08 01:22:17;;;;;;;6.50;5.70;;;16.20;99.90;;;;;;5033131;28;20295;-70
2021/07/08 01:24:43;;;;;;;7.20;4.87;;;16.20;99.90;;;;;;5047731;28;20177;-70
2021/07/08 01:27:09;;;;;;;6.93;5.70;;;16.10;99.90;;;;;;5037669;28;20199;-70
2021/07/08 01:29:35;;;;;;;5.60;5.10;;;16.10;99.90;;;;;;5033516;28;20182;-70
2021/07/08 01:32:00;;;;;;;6.70;5.70;;;16.00;99.90;;;;;;5032616;28;20541;-70
2021/07/08 01:34:26;;;;;;;5.90;4.77;;;16.00;99.90;;;;;;5047019;28;20168;-70
2021/07/08 01:36:52;;;;;;;7.00;5.00;;;16.00;99.90;;;;;;5053001;28;20159;-70
2021/07/08 01:39:19;;;;;;;7.03;4.97;;;15.90;99.90;;;;;;5053044;28;20398;-70
2021/07/08 01:41:45;;;;;;;4.83;4.43;;;15.90;99.90;;;;;;5053123;28;20178;-71
2021/07/08 01:44:11;;;;;;;5.17;4.57;;;15.90;99.90;;;;;;5050542;28;20430;-70
2021/07/08 01:46:38;;;;;;;5.00;4.60;;;15.90;99.90;;;;;;5052879;28;20540;-70
2021/07/08 01:49:04;;;;;;;9.80;5.17;;;15.90;99.90;;;;;;5034150;28;20446;-70
2021/07/08 01:51:32;;;;;;;6.00;4.97;;;15.90;99.90;;;;;;5012955;28;20501;-70
2021/07/08 01:53:59;;;;;;;7.30;4.40;;;15.90;99.90;;;;;;5030030;28;20572;-71
2021/07/08 01:56:25;;;;;;;5.90;4.87;;;15.90;99.90;;;;;;5045225;28;20449;-70
2021/07/08 01:58:52;;;;;;;10.23;5.10;;;15.90;99.90;;;;;;5032635;28;20753;-70
2021/07/08 02:01:19;;;;;;;5.60;4.80;;;15.80;99.90;;;;;;5046280;28;20456;-70
2021/07/08 02:03:45;;;;;;;9.80;4.60;;;15.80;99.90;;;;;;5033251;28;20522;-70
2021/07/08 02:06:11;;;;;;;5.20;4.63;;;15.70;99.90;;;;;;5022431;28;20454;-70
2021/07/08 02:08:37;;;;;;;6.43;4.60;;;15.70;99.90;;;;;;5019325;28;20183;-71
2021/07/08 02:11:04;;;;;;;6.70;5.47;;;15.70;99.90;;;;;;5032212;28;20422;-71
2021/07/08 02:13:31;;;;;;;7.57;5.50;;;15.70;99.90;;;;;;5049451;28;20177;-70
2021/07/08 02:15:57;;;;;;;7.23;5.07;;;15.70;99.90;;;;;;5051446;28;20387;-71
2021/07/08 02:18:24;;;;;;;6.00;4.30;;;15.70;99.90;;;;;;5012577;28;20765;-70
2021/07/08 02:20:49;;;;;;;4.93;4.43;;;15.70;99.90;;;;;;5030603;28;20176;-71
2021/07/08 02:23:15;;;;;;;5.60;3.90;;;15.60;99.90;;;;;;5029910;28;20444;-70
2021/07/08 02:25:41;;;;;;;5.93;4.43;;;15.60;99.90;;;;;;5014421;28;20163;-70
2021/07/08 02:28:06;;;;;;;5.80;4.77;;;15.60;99.90;;;;;;5016906;28;20652;-70
2021/07/08 02:30:32;;;;;;;6.13;4.13;;;15.60;99.90;;;;;;5024373;28;20270;-70
2021/07/08 02:32:58;;;;;;;6.07;4.90;;;15.60;99.90;;;;;;5032037;28;20201;-70
2021/07/08 02:35:25;;;;;;;5.33;4.00;;;15.60;99.90;;;;;;5032720;28;20569;-71
2021/07/08 02:37:53;;;;;;;6.23;4.93;;;15.60;99.90;;;;;;5017715;28;20898;-70
2021/07/08 02:40:22;;;;;;;5.77;4.73;;;15.60;99.90;;;;;;5027026;28;20412;-70
2021/07/08 02:42:52;;;;;;;9.37;5.97;;;15.50;99.90;;;;;;5051972;28;20397;-70
2021/07/08 02:45:19;;;;;;;6.03;4.50;;;15.50;99.90;;;;;;5051924;28;20393;-70
2021/07/08 02:47:45;;;;;;;5.07;4.57;;;15.50;99.90;;;;;;5037426;28;20425;-70
2021/07/08 02:50:11;;;;;;;5.53;4.60;;;15.50;99.90;;;;;;5035280;28;20421;-68
2021/07/08 02:52:37;;;;;;;4.57;3.83;;;15.50;99.90;;;;;;5051700;28;20800;-68
2021/07/08 02:55:05;;;;;;;5.90;4.97;;;15.50;99.90;;;;;;5051795;28;20247;-68
2021/07/08 02:57:31;;;;;;;5.07;4.67;;;15.50;99.90;;;;;;5020313;28;20183;-68
2021/07/08 02:59:57;;;;;;;5.50;4.50;;;15.50;99.90;;;;;;5029179;28;20573;-68
2021/07/08 03:02:22;;;;;;;6.23;5.10;;;15.50;99.90;;;;;;5032187;28;20211;-68
2021/07/08 03:04:48;;;;;;;5.97;5.20;;;15.50;99.90;;;;;;5031891;28;20162;-68
2021/07/08 03:07:15;;;;;;;5.70;4.73;;;15.50;99.90;;;;;;5023999;28;20179;-68
2021/07/08 03:09:40;;;;;;;6.33;5.30;;;15.50;99.90;;;;;;5012070;28;20410;-68
2021/07/08 03:12:07;;;;;;;5.50;4.60;;;15.50;99.90;;;;;;5029712;28;20479;-68
2021/07/08 03:14:32;;;;;;;5.30;4.80;;;15.40;99.90;;;;;;5030923;28;20174;-68
2021/07/08 03:16:58;;;;;;;8.00;5.70;;;15.40;99.90;;;;;;5027366;28;20415;-69
2021/07/08 03:19:24;;;;;;;5.93;5.40;;;15.40;99.90;;;;;;5011743;28;20625;-68
2021/07/08 03:21:49;;;;;;;7.33;5.60;;;15.40;99.90;;;;;;5041925;28;20650;-69
2021/07/08 03:24:15;;;;;;;5.27;4.77;;;15.40;99.90;;;;;;5051510;28;20160;-68
2021/07/08 03:26:40;;;;;;;5.50;5.00;;;15.40;99.90;;;;;;5039773;28;20166;-69
2021/07/08 03:29:06;;;;;;;6.43;5.10;;;15.40;99.90;;;;;;5031394;28;20166;-68
2021/07/08 03:31:31;;;;;;;7.50;6.40;;;15.40;99.90;;;;;;5035142;28;20205;-68
2021/07/08 03:33:57;;;;;;;6.60;5.97;;;15.40;99.90;;;;;;5025972;28;20183;-68
2021/07/08 03:36:22;;;;;;;6.00;5.40;;;15.40;99.90;;;;;;5017463;28;20213;-68
2021/07/08 03:38:48;;;;;;;7.67;6.00;;;15.40;99.90;;;;;;5023697;28;20222;-69
2021/07/08 03:41:13;;;;;;;6.37;5.83;;;15.40;99.90;;;;;;5018325;28;20213;-69
2021/07/08 03:43:39;;;;;;;8.70;6.20;;;15.40;99.90;;;;;;5026321;28;20249;-68
2021/07/08 03:46:04;;;;;;;8.20;6.60;;;15.40;99.90;;;;;;5029829;28;20212;-69
2021/07/08 03:48:30;;;;;;;8.93;6.40;;;15.40;99.90;;;;;;5023384;28;20260;-68
2021/07/08 03:50:55;;;;;;;7.27;5.93;;;15.40;99.90;;;;;;5030286;28;20517;-68
2021/07/08 03:53:21;;;;;;;6.77;5.90;;;15.40;99.90;;;;;;5031409;28;20671;-69
2021/07/08 03:55:47;;;;;;;7.57;6.77;;;15.40;99.90;;;;;;5015263;28;20251;-69
2021/07/08 03:58:12;;;;;;;6.90;6.20;;;15.40;99.90;;;;;;5015063;28;20175;-68
2021/07/08 04:00:40;;;;;;;6.87;6.20;;;15.40;99.90;;;;;;5018996;28;20645;-69
2021/07/08 04:03:08;;;;;;;8.73;6.17;;;15.40;99.90;;;;;;5026737;28;20187;-68
2021/07/08 04:05:35;;;;;;;7.23;6.27;;;15.40;99.90;;;;;;5015467;28;20425;-69
2021/07/08 04:08:02;;;;;;;8.50;5.73;;;15.40;99.90;;;;;;5014967;28;20394;-69
2021/07/08 04:10:28;;;;;;;7.97;6.47;;;15.40;99.90;;;;;;5017465;28;20487;-68
2021/07/08 04:12:54;;;;;;;8.50;7.00;;;15.50;99.90;;;;;;5054644;28;20487;-69
2021/07/08 04:15:19;;;;;;;6.50;5.80;;;15.50;99.90;;;;;;5051105;28;20416;-69
2021/07/08 04:17:45;;;;;;;8.23;6.43;;;15.50;99.90;;;;;;5033062;28;20169;-68
2021/07/08 04:20:14;;;;;;;8.20;5.90;;;15.60;99.90;;;;;;5034479;28;20195;-69
2021/07/08 04:22:40;;;;;;;6.93;5.90;;;15.60;99.90;;;;;;5034129;28;20468;-69
2021/07/08 04:25:07;;;;;;;7.10;6.40;;;15.60;99.90;;;;;;5034517;28;20452;-69
2021/07/08 04:27:34;;;;;;;7.00;5.60;;;15.70;99.90;;;;;;5036655;28;20176;-68
2021/07/08 04:29:59;;;;;;;12.47;6.30;;;15.70;99.90;;;;;;5042215;28;20435;-69
2021/07/08 04:32:25;;;;;;;16.50;6.30;;;15.70;99.90;;;;;;5041670;28;20534;-68
2021/07/08 04:34:50;;;;;;;9.83;7.03;;;15.70;99.90;;;;;;5052267;28;20223;-68
2021/07/08 04:37:16;;;;;;;8.10;6.70;;;15.70;99.90;;;;;;5039622;28;20174;-68
2021/07/08 04:39:42;;;;;;;8.80;6.33;;;15.70;99.90;;;;;;5017696;28;20265;-68
2021/07/08 04:42:10;;;;;;;8.80;6.00;;;15.80;99.90;;;;;;5022151;28;20194;-68
2021/07/08 04:44:36;;;;;;;9.93;6.33;;;15.80;99.90;;;;;;5014352;28;20399;-69
2021/07/08 04:47:08;;;;;;;7.53;6.10;;;15.80;99.90;;;;;;5013763;28;20982;-69
2021/07/08 04:49:34;;;;;;;8.93;5.83;;;15.90;99.90;;;;;;5013396;28;20408;-69
2021/07/08 04:52:01;;;;;;;10.80;6.20;;;15.90;99.90;;;;;;5013618;28;20628;-68
2021/07/08 04:54:27;;;;;;;10.13;6.20;;;16.00;99.90;;;;;;5017473;28;21204;-68
2021/07/08 04:56:52;;;;;;;6.97;6.37;;;16.00;99.90;;;;;;5016107;28;20426;-68
2021/07/08 04:59:18;;;;;;;8.77;6.17;;;16.10;99.90;;;;;;5024849;28;20218;-69
2021/07/08 05:01:43;;;;;;;8.87;7.10;;;16.10;99.90;;;;;;5019212;28;20270;-69
2021/07/08 05:04:09;;;;;;;7.80;5.97;;;16.10;99.90;;;;;;5033166;28;20217;-68
2021/07/08 05:06:34;;;;;;;7.70;6.43;;;16.20;99.90;;;;;;5033031;28;20167;-68
2021/07/08 05:09:00;;;;;;;8.40;6.30;;;16.20;99.90;;;;;;5033129;28;20176;-68
2021/07/08 05:11:25;;;;;;;7.70;6.90;;;16.20;99.90;;;;;;5033699;28;20242;-69
2021/07/08 05:13:51;;;;;;;13.60;6.10;;;16.30;99.90;;;;;;5033229;28;20524;-68
2021/07/08 05:16:16;;;;;;;6.83;5.47;;;16.30;99.90;;;;;;5033473;28;20309;-68
2021/07/08 05:18:42;;;;;;;7.10;6.40;;;16.40;99.90;;;;;;5033265;28;20165;-68
2021/07/08 05:21:09;;;;;;;6.37;5.37;;;16.40;99.90;;;;;;5033414;28;20193;-68
2021/07/08 05:23:37;;;;;;;5.97;5.40;;;16.40;99.90;;;;;;5032739;28;20183;-68
2021/07/08 05:26:03;;;;;;;6.83;5.77;;;16.40;99.90;;;;;;5033362;28;20758;-68
2021/07/08 05:28:30;;;;;;;8.13;5.87;;;16.50;99.90;;;;;;5051811;28;20449;-68
2021/07/08 05:30:56;;;;;;;6.53;5.83;;;16.50;99.90;;;;;;5033349;28;20696;-68
2021/07/08 05:33:21;;;;;;;5.73;5.23;;;16.60;99.90;;;;;;5024862;28;20572;-69
2021/07/08 05:35:47;;;;;;;9.57;5.53;;;16.60;99.90;;;;;;5053494;28;20187;-68
2021/07/08 05:38:13;;;;;;;11.20;6.10;;;16.70;99.90;;;;;;5052689;28;20148;-69
2021/07/08 05:40:38;;;;;;;7.70;6.93;;;16.80;99.90;;;;;;5052831;28;20175;-68
2021/07/08 05:43:05;;;;;;;10.80;7.10;;;16.80;99.90;;;;;;5035472;28;20186;-68
2021/07/08 05:45:31;;;;;;;6.33;5.73;;;16.90;99.90;;;;;;5013298;28;20161;-68
2021/07/08 05:47:56;;;;;;;8.80;5.90;;;17.00;99.90;;;;;;5013314;28;20924;-68
2021/07/08 05:50:22;;;;;;;7.33;6.50;;;17.00;99.90;;;;;;5023246;28;20733;-68
2021/07/08 05:52:48;;;;;;;10.93;6.23;;;17.10;99.90;;;;;;5014115;28;20213;-68
2021/07/08 05:55:13;;;;;;;6.00;5.40;;;17.10;99.90;;;;;;5019789;28;20184;-69
2021/07/08 05:57:46;;;;;;;7.67;5.37;;;17.10;99.90;;;;;;5021622;28;20189;-68
2021/07/08 06:00:14;;;;;;;6.30;5.70;;;17.20;99.90;;;;;;5019767;28;20205;-69
2021/07/08 06:02:40;;;;;;;8.30;6.17;;;17.20;99.90;;;;;;5026633;28;20879;-69
2021/07/08 06:05:06;;;;;;;7.23;5.67;;;17.20;99.90;;;;;;5023618;28;20530;-68
2021/07/08 06:07:31;;;;;;;7.23;6.53;;;17.30;99.90;;;;;;5013560;28;20185;-68
2021/07/08 06:09:57;;;;;;;7.93;6.63;;;17.30;99.90;;;;;;5012838;28;20411;-69
2021/07/08 06:12:22;;;;;;;7.03;5.93;;;17.40;99.90;;;;;;5017876;28;20299;-69
2021/07/08 06:14:49;;;;;;;6.40;5.80;;;17.40;99.90;;;;;;5021714;28;20935;-69
2021/07/08 06:17:14;;;;;;;7.77;6.70;;;17.50;99.90;;;;;;5021042;28;20700;-69
2021/07/08 06:19:40;;;;;;;6.97;5.50;;;17.60;99.90;;;;;;5019068;28;20436;-68
2021/07/08 06:22:05;;;;;;;11.50;7.43;;;17.70;99.90;;;;;;5018916;28;20223;-68
2021/07/08 06:24:31;;;;;;;9.00;6.17;;;17.80;99.90;;;;;;5016457;28;20551;-69
2021/07/08 06:26:57;;;;;;;7.73;6.87;;;17.90;99.90;;;;;;5020360;28;20489;-69
2021/07/08 06:29:22;;;;;;;8.67;6.30;;;18.00;99.90;;;;;;5015901;28;20183;-69
2021/07/08 06:31:48;;;;;;;8.50;6.27;;;18.10;99.90;;;;;;5018032;28;20215;-68
2021/07/08 06:34:13;;;;;;;9.70;6.43;;;18.20;99.90;;;;;;5015914;28;20212;-69
2021/07/08 06:36:39;;;;;;;7.50;6.00;;;18.30;99.90;;;;;;5017503;28;20192;-68
2021/07/08 06:39:05;;;;;;;8.47;5.73;;;18.30;99.90;;;;;;5022640;28;20180;-69
2021/07/08 06:41:31;;;;;;;9.23;5.73;;;18.40;99.90;;;;;;5023583;28;20193;-69
2021/07/08 06:43:57;;;;;;;7.77;6.07;;;18.50;99.90;;;;;;5014441;28;20226;-69
2021/07/08 06:46:28;;;;;;;7.20;6.50;;;18.60;99.90;;;;;;5018473;28;20446;-68
2021/07/08 06:48:54;;;;;;;10.37;5.87;;;18.70;99.90;;;;;;5015736;28;20441;-68
2021/07/08 06:51:19;;;;;;;6.93;6.20;;;18.80;99.90;;;;;;5016216;28;20456;-68
2021/07/08 06:53:45;;;;;;;8.77;6.80;;;18.90;99.90;;;;;;5017552;28;20268;-69
2021/07/08 06:56:10;;;;;;;8.63;7.70;;;19.10;99.90;;;;;;5018310;28;20634;-68
2021/07/08 06:58:36;;;;;;;8.70;6.37;;;19.20;99.90;;;;;;5016702;28;20207;-69
2021/07/08 07:01:02;;;;;;;7.50;6.70;;;19.30;99.90;;;;;;5018604;28;20271;-68
2021/07/08 07:03:27;;;;;;;7.43;6.33;;;19.40;99.90;;;;;;5020270;28;20208;-69
2021/07/08 07:05:53;;;;;;;7.03;6.10;;;19.50;99.90;;;;;;5015539;28;20180;-68
2021/07/08 07:08:19;;;;;;;6.90;6.10;;;19.60;99.90;;;;;;5021421;28;20180;-69
2021/07/08 07:10:44;;;;;;;10.30;6.90;;;19.70;99.90;;;;;;5012274;28;20300;-69
2021/07/08 07:13:11;;;;;;;6.93;6.10;;;19.80;99.90;;;;;;5017435;28;20203;-69
2021/07/08 07:15:39;;;;;;;9.80;7.07;;;20.00;99.90;;;;;;5025600;28;20173;-69
2021/07/08 07:18:05;;;;;;;8.37;5.50;;;20.00;99.90;;;;;;5026907;28;20428;-69
2021/07/08 07:20:31;;;;;;;6.67;5.90;;;20.20;99.90;;;;;;5019436;28;20428;-69
2021/07/08 07:22:57;;;;;;;7.13;6.13;;;20.30;99.90;;;;;;5020330;28;20236;-69
2021/07/08 07:25:25;;;;;;;8.00;5.90;;;20.60;99.90;;;;;;5018049;28;20231;-68
2021/07/08 07:27:52;;;;;;;8.83;6.07;;;20.90;99.90;;;;;;5019900;28;20178;-69
2021/07/08 07:30:19;;;;;;;11.07;6.07;;;21.20;99.90;;;;;;5017263;28;20527;-68
2021/07/08 07:32:45;;;;;;;9.60;5.73;;;21.50;99.90;;;;;;5026776;28;20448;-68
2021/07/08 07:35:12;;;;;;;7.73;5.23;;;21.90;99.90;;;;;;5015732;28;20863;-69
2021/07/08 07:37:38;;;;;;;5.17;4.63;;;22.50;99.90;;;;;;5019329;28;20178;-69
2021/07/08 07:40:04;;;;;;;7.63;4.00;;;23.50;99.90;;;;;;5030680;28;20863;-69
2021/07/08 07:42:30;;;;;;;10.17;3.60;;;24.40;99.90;;;;;;5026089;28;20843;-69
2021/07/08 07:44:56;;;;;;;7.57;3.60;;;25.20;99.90;;;;;;5016645;28;20547;-69
2021/07/08 07:47:21;;;;;;;5.77;3.37;;;26.10;97.40;;;;;;5018592;28;20442;-69
2021/07/08 07:49:47;;;;;;;5.83;3.10;;;27.20;95.90;;;;;;5029375;28;20177;-69
2021/07/08 07:52:13;;;;;;;6.77;3.63;;;28.30;93.10;;;;;;5017933;28;20752;-69
2021/07/08 07:54:40;;;;;;;6.10;2.60;;;29.40;87.70;;;;;;5016574;28;20232;-69
2021/07/08 07:57:08;;;;;;;4.90;2.40;;;30.30;70.30;;;;;;5021114;28;20444;-69
2021/07/08 07:59:33;;;;;;;3.60;2.20;;;31.10;63.30;;;;;;5020319;28;20443;-70
2021/07/08 08:02:01;;;;;;;5.97;2.40;;;31.80;57.90;;;;;;5024215;28;20438;-69
2021/07/08 08:04:29;;;;;;;3.20;2.23;;;32.40;58.70;;;;;;5022106;28;20223;-69
2021/07/08 08:09:41;;;;;;;5.03;2.40;;;33.60;52.30;;;;;;5028825;28;20439;-70
2021/07/08 08:12:08;;;;;;;2.90;2.40;;;33.90;50.40;;;;;;5026322;28;20975;-70
2021/07/08 08:14:34;;;;;;;3.63;2.50;;;33.90;49.10;;;;;;5016044;28;20598;-70
2021/07/08 08:17:00;;;;;;;3.17;2.13;;;34.00;48.10;;;;;;5029179;28;20424;-68
2021/07/08 08:19:26;;;;;;;6.17;2.53;;;33.90;49.60;;;;;;5027496;28;20781;-68
2021/07/08 08:21:51;;;;;;;2.57;1.80;;;33.70;47.70;;;;;;5023142;28;20177;-70
2021/07/08 08:24:17;;;;;;;2.10;1.90;;;33.30;48.40;;;;;;5022684;28;20319;-69
2021/07/08 08:26:43;;;;;;;4.40;2.30;;;32.70;48.70;;;;;;5028853;28;20669;-69
2021/07/08 08:29:09;;;;;;;2.73;1.87;;;32.30;51.30;;;;;;5027304;28;20185;-69
2021/07/08 08:31:34;;;;;;;5.80;2.43;;;32.00;51.40;;;;;;5016284;28;20632;-68
2021/07/08 08:34:00;;;;;;;4.70;2.40;;;31.50;52.10;;;;;;5026766;28;20181;-68
2021/07/08 08:36:25;;;;;;;4.40;2.40;;;31.00;53.00;;;;;;5031584;28;20213;-69
2021/07/08 08:38:51;;;;;;;4.63;2.40;;;30.50;53.90;;;;;;5017064;28;20180;-68
2021/07/08 08:41:16;;;;;;;4.20;2.30;;;30.10;56.80;;;;;;5016300;28;20257;-69
2021/07/08 08:43:42;;;;;;;2.70;2.00;;;30.10;56.60;;;;;;5019411;28;20299;-69
2021/07/08 08:46:08;;;;;;;2.20;2.00;;;30.60;54.70;;;;;;5034383;28;20271;-69
2021/07/08 08:48:34;;;;;;;3.67;2.17;;;31.40;53.80;;;;;;5021311;28;20255;-69
2021/07/08 08:51:00;;;;;;;2.40;2.10;;;32.10;53.00;;;;;;5016122;28;20173;-69
2021/07/08 08:53:26;;;;;;;4.87;2.50;;;32.80;51.10;;;;;;5014217;28;20936;-69
2021/07/08 08:55:52;;;;;;;2.33;2.10;;;33.10;47.70;;;;;;5020232;28;20769;-69
2021/07/08 08:58:20;;;;;;;6.30;2.50;;;32.90;49.80;;;;;;5011340;28;20190;-69
2021/07/08 09:03:26;;;;;;;2.90;2.43;;;32.60;49.80;;;;;;5055939;28;21073;-69
2021/07/08 09:06:09;;;;;;;3.30;2.07;;;31.90;50.50;;;;;;5047740;28;20445;-69
2021/07/08 09:08:37;;;;;;;3.03;2.40;;;31.70;51.10;;;;;;5046361;28;20517;-69
2021/07/08 09:21:52;;;;;;;3.07;1.83;;;31.60;51.00;;;;;;5051926;28;20687;-70
2021/07/08 09:29:35;;;;;;;2.47;1.90;;;31.80;53.60;;;;;;5069792;28;20528;-69
2021/07/08 09:34:46;;;;;;;2.33;1.50;;;31.60;55.00;;;;;;5060194;28;20536;-68
2021/07/08 09:37:16;;;;;;;3.37;2.10;;;31.70;54.90;;;;;;5047373;28;20414;-68
2021/07/08 09:39:43;;;;;;;5.33;2.10;;;31.70;52.00;;;;;;5045998;28;20426;-68
2021/07/08 09:42:11;;;;;;;3.53;2.20;;;31.60;55.10;;;;;;5047376;28;20454;-68
2021/07/08 09:44:38;;;;;;;5.03;2.17;;;31.60;53.40;;;;;;5050481;28;20950;-69
2021/07/08 09:47:04;;;;;;;2.40;1.63;;;31.50;53.90;;;;;;5050841;28;20430;-69
2021/07/08 09:49:30;;;;;;;2.30;1.97;;;31.40;54.10;;;;;;5047093;28;20884;-68
2021/07/08 09:51:56;;;;;;;6.47;2.97;;;31.10;52.10;;;;;;5047572;28;20437;-69
2021/07/08 09:54:49;;;;;;;4.47;2.40;;;30.80;53.20;;;;;;5041545;28;20681;-68
2021/07/08 09:57:33;;;;;;;3.43;2.07;;;30.40;54.50;;;;;;5047190;28;20932;-69
2021/07/08 09:59:59;;;;;;;2.70;1.70;;;30.10;56.20;;;;;;5048311;28;20806;-68
2021/07/08 10:02:30;;;;;;;2.37;1.80;;;29.90;60.70;;;;;;5046477;28;20454;-69
2021/07/08 10:04:57;;;;;;;2.50;1.70;;;29.70;56.40;;;;;;5061940;28;20402;-68
2021/07/08 10:07:24;;;;;;;4.33;2.20;;;29.40;56.10;;;;;;5044753;28;20517;-69
2021/07/08 10:09:50;;;;;;;3.63;2.00;;;29.20;58.00;;;;;;5041636;28;20423;-69
2021/07/08 10:12:15;;;;;;;4.23;2.27;;;28.90;58.30;;;;;;5049867;28;20438;-69
2021/07/08 10:14:43;;;;;;;3.10;2.50;;;28.60;58.40;;;;;;5045750;28;20435;-69
2021/07/08 10:17:10;;;;;;;6.30;2.60;;;28.30;61.00;;;;;;5064380;28;20263;-69
2021/07/08 10:19:37;;;;;;;4.60;2.00;;;28.10;59.20;;;;;;5032400;28;20423;-69
2021/07/08 10:22:03;;;;;;;4.17;2.43;;;27.90;61.50;;;;;;5035986;28;20514;-68
2021/07/08 10:24:29;;;;;;;2.33;1.97;;;27.80;60.80;;;;;;5035127;28;20514;-69
2021/07/08 10:26:56;;;;;;;3.40;2.30;;;27.80;60.60;;;;;;5036958;28;20441;-68
2021/07/08 10:29:23;;;;;;;4.07;2.30;;;28.00;65.30;;;;;;5038925;28;20989;-69
2021/07/08 10:31:50;;;;;;;2.70;1.80;;;28.10;60.70;;;;;;5045760;28;20434;-69
2021/07/08 10:37:08;;;;;;;6.50;2.43;;;28.10;60.60;;;;;;5063244;28;20553;-68
2021/07/08 10:39:41;;;;;;;2.60;2.40;;;28.20;59.80;;;;;;5040196;28;20427;-68
2021/07/08 10:42:07;;;;;;;4.70;2.70;;;28.30;60.80;;;;;;5043690;28;20427;-68
2021/07/08 10:47:32;;;;;;;5.60;2.83;;;28.20;57.80;;;;;;5061600;28;20636;-70
2021/07/08 10:49:57;;;;;;;6.60;3.23;;;28.10;60.80;;;;;;5043814;28;20434;-69
2021/07/08 10:55:39;;;;;;;6.80;3.20;;;27.70;68.30;;;;;;5071865;28;20528;-70
2021/07/08 10:58:06;;;;;;;5.00;2.90;;;27.30;67.20;;;;;;5064026;28;20417;-70
2021/07/08 11:00:49;;;;;;;4.50;2.97;;;27.10;70.10;;;;;;5044353;28;20454;-70
2021/07/08 11:27:33;;;;;;;8.47;2.63;;;25.30;83.50;;;;;;4998912;27;20611;-69
2021/07/08 11:30:03;;;;;;;7.00;4.77;;;25.00;84.10;;;;;;5001684;28;20432;-68
2021/07/08 11:35:15;;;;;;;4.80;3.63;;;25.00;83.50;;;;;;5063953;27;21029;-69
2021/07/08 11:37:43;;;;;;;4.47;3.73;;;24.80;85.10;;;;;;5056834;28;20429;-69
2021/07/08 11:40:12;;;;;;;5.27;4.77;;;24.80;89.30;;;;;;5051665;28;21004;-69
2021/07/08 11:42:39;;;;;;;4.00;3.60;;;24.70;91.20;;;;;;5053581;28;20932;-69
2021/07/08 11:47:58;;;;;;;5.53;3.83;;;24.70;92.50;;;;;;5049595;28;20667;-69
2021/07/08 11:50:27;;;;;;;5.37;3.60;;;24.70;96.20;;;;;;5044338;28;20477;-69
2021/07/08 11:53:14;;;;;;;4.70;3.50;;;24.70;97.80;;;;;;5047940;28;20423;-69
2021/07/08 11:55:43;;;;;;;5.17;3.40;;;24.80;95.30;;;;;;5042081;28;20434;-69
2021/07/08 11:58:10;;;;;;;4.20;3.40;;;24.90;93.20;;;;;;5046807;28;20442;-69
2021/07/08 12:06:05;;;;;;;8.30;4.63;;;25.40;95.80;;;;;;5043155;28;20609;-69
2021/07/08 12:11:16;;;;;;;5.30;4.70;;;25.60;95.50;;;;;;5061009;28;20532;-70
2021/07/08 12:14:01;;;;;;;4.50;4.10;;;25.70;94.70;;;;;;5042951;28;20811;-70
2021/07/08 12:16:31;;;;;;;8.87;3.63;;;25.60;92.90;;;;;;5041691;28;20500;-69
2021/07/08 12:18:59;;;;;;;4.90;3.93;;;25.60;92.60;;;;;;5041570;28;20445;-69
2021/07/08 12:21:37;;;;;;;7.80;3.77;;;25.60;94.70;;;;;;5041255;28;20435;-70
2021/07/08 12:26:43;;;;;;;5.83;3.77;;;25.40;94.90;;;;;;5055214;28;20541;-70
2021/07/08 12:34:33;;;;;;;5.83;4.00;;;25.30;94.90;;;;;;5049594;28;21078;-69
2021/07/08 12:37:13;;;;;;;9.13;4.07;;;25.40;95.80;;;;;;5025401;28;20431;-69
2021/07/08 12:39:40;;;;;;;7.40;3.40;;;25.40;95.00;;;;;;5032618;28;20492;-69
2021/07/08 12:42:13;;;;;;;4.17;3.20;;;25.40;94.20;;;;;;5033419;28;20438;-69
2021/07/08 12:44:39;;;;;;;5.90;3.93;;;25.40;95.30;;;;;;5032887;28;20466;-69
2021/07/08 12:47:05;;;;;;;5.27;3.60;;;25.40;95.60;;;;;;5030719;28;21001;-69
2021/07/08 12:49:31;;;;;;;5.07;3.67;;;25.50;96.00;;;;;;5044420;28;20434;-69
2021/07/08 12:51:56;;;;;;;3.80;3.47;;;25.50;95.30;;;;;;5033627;28;20177;-69
2021/07/08 12:54:24;;;;;;;5.40;4.03;;;25.60;93.90;;;;;;5028828;28;20195;-69
2021/07/08 12:57:11;;;;;;;4.27;3.10;;;25.70;94.40;;;;;;5035840;28;20230;-69
2021/07/08 12:59:38;;;;;;;5.00;3.30;;;25.70;93.40;;;;;;5027927;28;20502;-69
2021/07/08 13:02:04;;;;;;;3.60;3.30;;;25.70;95.50;;;;;;5017006;28;20519;-69
2021/07/08 13:04:32;;;;;;;8.63;4.50;;;25.70;94.20;;;;;;5009932;28;20428;-69
2021/07/08 13:07:00;;;;;;;5.20;4.17;;;25.60;93.50;;;;;;5014962;28;20872;-69
2021/07/08 13:09:25;;;;;;;10.13;4.83;;;25.60;94.70;;;;;;5007732;28;20494;-69
2021/07/08 13:11:51;;;;;;;7.53;4.43;;;25.50;94.30;;;;;;5006957;28;20433;-69
2021/07/08 13:14:22;;;;;;;5.90;3.57;;;25.50;95.10;;;;;;5013393;28;20213;-69
2021/07/08 13:17:07;;;;;;;7.33;4.40;;;25.40;94.30;;;;;;5008096;28;20268;-69
2021/07/08 13:19:35;;;;;;;6.17;4.43;;;25.40;95.70;;;;;;5007924;28;20518;-69
2021/07/08 13:24:51;;;;;;;4.97;3.90;;;25.40;95.50;;;;;;5058427;28;20562;-69
2021/07/08 13:27:38;;;;;;;5.63;4.33;;;25.30;93.40;;;;;;5044084;28;20430;-69
2021/07/08 13:30:26;;;;;;;4.97;3.63;;;25.30;94.30;;;;;;5047033;28;20517;-69
2021/07/08 13:33:13;;;;;;;6.80;4.20;;;25.30;95.50;;;;;;5053992;28;20987;-69
2021/07/08 13:38:22;;;;;;;4.23;3.30;;;25.20;95.20;;;;;;5108585;27;21024;-69
2021/07/08 13:46:44;;;;;;;3.97;3.03;;;25.20;93.60;;;;;;5038954;28;20702;-69
2021/07/08 13:49:13;;;;;;;4.23;2.73;;;25.20;94.50;;;;;;5026810;28;20423;-69
2021/07/08 13:51:57;;;;;;;3.50;3.20;;;25.20;94.40;;;;;;5023911;28;20424;-69
2021/07/08 13:54:45;;;;;;;3.97;3.40;;;25.20;94.30;;;;;;5024801;28;20923;-69
2021/07/08 13:57:14;;;;;;;3.93;2.80;;;25.20;95.80;;;;;;5026613;28;21014;-69
2021/07/08 13:59:41;;;;;;;10.60;4.50;;;25.20;94.40;;;;;;5026903;28;20456;-69
2021/07/08 14:02:07;;;;;;;3.30;3.00;;;25.10;93.10;;;;;;5024504;28;20523;-69
2021/07/08 14:04:33;;;;;;;5.63;3.53;;;25.20;93.90;;;;;;5026351;28;20530;-69
2021/07/08 14:06:58;;;;;;;5.50;3.27;;;25.20;95.20;;;;;;5027124;28;20423;-69
2021/07/08 14:09:25;;;;;;;5.53;3.50;;;25.20;92.60;;;;;;5018549;28;20205;-69
2021/07/08 14:11:52;;;;;;;3.37;3.07;;;25.20;93.90;;;;;;5025170;28;20264;-69
2021/07/08 14:14:18;;;;;;;5.80;3.10;;;25.30;92.60;;;;;;5022925;28;20527;-69
2021/07/08 14:16:43;;;;;;;4.00;2.70;;;25.30;92.40;;;;;;5020621;28;20527;-69